Time;durP1;ratioP1;P1;durP2;ratioP2;P2;SDS_P1;SDS_P2;PMS_P1;PMS_P2;Temp;Humidity;BMP_temperature;BMP_pressure;BME280_temperature;BME280_humidity;BME280_pressure;Samples;Min_cycle;Max_cycle;Signal;HPM_P1;HPM_P2
2022/03/17 00:02:02;;;;;;;53.20;26.50;;;;;;;;;;5026873;28;100595;-72
2022/03/17 00:04:30;;;;;;;55.15;26.45;;;;;;;;;;5008915;28;100968;-72
2022/03/17 00:06:57;;;;;;;53.38;25.08;;;;;;;;;;5008565;28;100644;-72
2022/03/17 00:09:24;;;;;;;55.92;27.65;;;;;;;;;;5008985;28;100160;-73
2022/03/17 00:11:52;;;;;;;58.65;28.35;;;;;;;;;;5010680;28;100626;-72
2022/03/17 00:14:20;;;;;;;51.88;26.42;;;;;;;;;;5009587;28;100222;-72
2022/03/17 00:16:47;;;;;;;56.67;28.10;;;;;;;;;;5011017;28;100098;-72
2022/03/17 00:19:15;;;;;;;58.30;29.63;;;;;;;;;;4993052;28;100780;-72
2022/03/17 00:21:41;;;;;;;59.00;28.23;;;;;;;;;;5009604;28;101128;-72
2022/03/17 00:24:08;;;;;;;54.63;29.05;;;;;;;;;;5030420;28;100233;-73
2022/03/17 00:26:36;;;;;;;61.72;31.83;;;;;;;;;;4997030;28;100276;-72
2022/03/17 00:29:03;;;;;;;62.20;30.20;;;;;;;;;;4995709;28;101356;-72
2022/03/17 00:31:30;;;;;;;96.57;44.00;;;;;;;;;;5031797;27;100577;-73
2022/03/17 00:33:57;;;;;;;82.63;35.72;;;;;;;;;;5033209;27;100088;-72
2022/03/17 00:36:23;;;;;;;83.72;39.38;;;;;;;;;;4985288;28;100140;-72
2022/03/17 00:38:50;;;;;;;89.88;39.00;;;;;;;;;;4996798;28;100303;-73
2022/03/17 00:41:17;;;;;;;69.50;32.15;;;;;;;;;;4996027;28;104649;-72
2022/03/17 00:43:44;;;;;;;77.55;34.72;;;;;;;;;;4996922;28;100188;-72
2022/03/17 00:46:11;;;;;;;93.30;43.00;;;;;;;;;;5014223;28;100003;-75
2022/03/17 00:48:38;;;;;;;79.38;35.92;;;;;;;;;;4979805;28;102400;-72
2022/03/17 00:51:04;;;;;;;87.05;40.67;;;;;;;;;;4996459;28;100926;-74
2022/03/17 00:53:31;;;;;;;83.72;39.30;;;;;;;;;;4980023;28;100247;-71
2022/03/17 00:55:58;;;;;;;86.75;39.67;;;;;;;;;;5013578;28;100058;-71
2022/03/17 00:58:25;;;;;;;65.47;33.33;;;;;;;;;;5023596;28;100832;-72
2022/03/17 01:00:51;;;;;;;74.35;35.40;;;;;;;;;;5032432;28;100172;-72
2022/03/17 01:03:19;;;;;;;74.72;37.10;;;;;;;;;;5020821;28;101321;-71
2022/03/17 01:05:46;;;;;;;78.88;37.30;;;;;;;;;;5013233;28;100410;-71
2022/03/17 01:08:13;;;;;;;66.15;32.85;;;;;;;;;;5012249;28;100192;-71
2022/03/17 01:10:42;;;;;;;82.07;38.13;;;;;;;;;;4995740;28;101181;-71
2022/03/17 01:13:09;;;;;;;86.97;38.15;;;;;;;;;;5011841;28;100374;-71
2022/03/17 01:15:36;;;;;;;71.22;32.92;;;;;;;;;;5013552;28;100081;-71
2022/03/17 01:18:03;;;;;;;88.93;39.50;;;;;;;;;;5012452;28;100266;-74
2022/03/17 01:20:30;;;;;;;84.13;39.05;;;;;;;;;;4995866;28;101740;-71
2022/03/17 01:22:57;;;;;;;76.47;33.45;;;;;;;;;;5025030;28;100010;-71
2022/03/17 01:25:24;;;;;;;65.22;32.55;;;;;;;;;;5034061;27;100836;-71
2022/03/17 01:27:50;;;;;;;60.63;27.38;;;;;;;;;;4999246;28;100303;-73
2022/03/17 01:30:17;;;;;;;65.72;30.15;;;;;;;;;;5033983;27;100595;-71
2022/03/17 01:32:44;;;;;;;55.45;27.48;;;;;;;;;;5016373;28;102300;-72
2022/03/17 01:35:15;;;;;;;51.90;26.75;;;;;;;;;;5034032;27;100100;-71
2022/03/17 01:37:42;;;;;;;57.20;27.58;;;;;;;;;;5029685;28;100869;-71
2022/03/17 01:40:09;;;;;;;60.08;28.95;;;;;;;;;;5010029;28;100571;-70
2022/03/17 01:42:36;;;;;;;52.60;25.23;;;;;;;;;;5011634;28;100131;-70
2022/03/17 01:45:03;;;;;;;58.20;28.27;;;;;;;;;;5012588;28;100167;-71
2022/03/17 01:47:31;;;;;;;75.82;35.28;;;;;;;;;;5011624;28;100358;-71
2022/03/17 01:50:04;;;;;;;57.90;27.85;;;;;;;;;;5011546;28;101106;-71
2022/03/17 01:52:30;;;;;;;68.22;31.42;;;;;;;;;;5027530;28;100219;-71
2022/03/17 01:54:57;;;;;;;59.75;28.02;;;;;;;;;;5032728;28;100112;-71
2022/03/17 01:57:24;;;;;;;63.78;30.25;;;;;;;;;;5031850;28;100529;-70
2022/03/17 01:59:51;;;;;;;65.18;31.17;;;;;;;;;;4998311;28;103167;-71
2022/03/17 02:02:18;;;;;;;57.97;26.38;;;;;;;;;;5032314;28;100382;-71
2022/03/17 02:04:47;;;;;;;58.75;29.92;;;;;;;;;;5016255;28;100126;-71
2022/03/17 02:07:14;;;;;;;59.10;29.33;;;;;;;;;;5032694;28;100795;-70
2022/03/17 02:09:42;;;;;;;58.85;28.42;;;;;;;;;;5015299;28;100633;-71
2022/03/17 02:15:01;;;;;;;59.08;28.60;;;;;;;;;;5032733;27;100090;-71
2022/03/17 02:17:30;;;;;;;50.55;24.95;;;;;;;;;;5011732;28;100424;-70
2022/03/17 02:20:01;;;;;;;51.40;26.23;;;;;;;;;;5012823;28;100625;-70
2022/03/17 02:22:28;;;;;;;55.65;25.92;;;;;;;;;;5016090;28;100070;-70
2022/03/17 02:27:46;;;;;;;69.85;31.88;;;;;;;;;;5010907;28;100463;-71
2022/03/17 02:30:15;;;;;;;51.65;25.13;;;;;;;;;;4995687;28;100529;-71
2022/03/17 02:32:41;;;;;;;48.25;24.40;;;;;;;;;;4978584;28;100398;-71
2022/03/17 02:35:10;;;;;;;53.70;25.98;;;;;;;;;;5011526;28;100196;-71
2022/03/17 02:37:37;;;;;;;56.22;27.17;;;;;;;;;;4993960;28;100134;-71
2022/03/17 02:40:06;;;;;;;55.17;26.88;;;;;;;;;;4994399;28;100996;-71
2022/03/17 02:42:33;;;;;;;62.08;27.83;;;;;;;;;;4996982;28;101643;-71
2022/03/17 02:45:01;;;;;;;57.20;28.10;;;;;;;;;;5008276;28;100150;-71
2022/03/17 02:47:29;;;;;;;66.80;30.42;;;;;;;;;;5025740;28;100336;-71
2022/03/17 02:49:55;;;;;;;60.35;28.17;;;;;;;;;;5031713;27;100602;-71
2022/03/17 02:52:23;;;;;;;56.28;25.42;;;;;;;;;;5014206;27;100589;-71
2022/03/17 02:54:50;;;;;;;57.65;27.08;;;;;;;;;;4975425;28;100217;-71
2022/03/17 02:57:17;;;;;;;54.55;26.73;;;;;;;;;;4994088;28;100194;-71
2022/03/17 02:59:44;;;;;;;46.47;22.80;;;;;;;;;;4992494;28;100623;-71
2022/03/17 03:02:11;;;;;;;53.03;25.02;;;;;;;;;;4976472;28;100370;-71
2022/03/17 03:04:38;;;;;;;46.63;23.67;;;;;;;;;;5011967;28;101985;-72
2022/03/17 03:07:06;;;;;;;56.67;26.88;;;;;;;;;;5012094;28;100315;-71
2022/03/17 03:09:33;;;;;;;51.92;26.33;;;;;;;;;;5011445;28;100699;-71
2022/03/17 03:12:00;;;;;;;47.42;24.73;;;;;;;;;;5012617;28;100174;-71
2022/03/17 03:14:28;;;;;;;67.78;30.67;;;;;;;;;;5011042;28;100174;-71
2022/03/17 03:16:54;;;;;;;64.75;28.75;;;;;;;;;;5011911;28;100489;-71
2022/03/17 03:19:21;;;;;;;63.70;32.03;;;;;;;;;;5011273;28;100494;-71
2022/03/17 03:21:48;;;;;;;69.68;32.58;;;;;;;;;;4978054;28;100114;-70
2022/03/17 03:24:16;;;;;;;62.25;29.35;;;;;;;;;;5009602;28;100199;-70
2022/03/17 03:26:43;;;;;;;68.95;31.85;;;;;;;;;;5011277;28;100406;-71
2022/03/17 03:29:23;;;;;;;65.68;31.77;;;;;;;;;;5012186;28;101372;-71
2022/03/17 03:31:50;;;;;;;64.88;30.23;;;;;;;;;;5012923;28;100042;-71
2022/03/17 03:34:17;;;;;;;54.63;27.70;;;;;;;;;;5011244;28;100079;-71
2022/03/17 03:39:30;;;;;;;62.83;29.27;;;;;;;;;;5011956;28;100708;-70
2022/03/17 03:41:57;;;;;;;56.30;27.58;;;;;;;;;;5011333;28;99895;-71
2022/03/17 03:44:24;;;;;;;65.47;30.00;;;;;;;;;;5011490;28;100894;-71
2022/03/17 03:46:51;;;;;;;65.90;30.88;;;;;;;;;;5011082;28;103079;-70
2022/03/17 03:49:18;;;;;;;68.50;31.50;;;;;;;;;;4960908;28;100682;-71
2022/03/17 03:51:45;;;;;;;57.38;27.70;;;;;;;;;;5010666;28;100123;-70
2022/03/17 03:54:18;;;;;;;49.33;21.95;;;;;;;;;;5011504;28;99891;-71
2022/03/17 03:56:49;;;;;;;54.05;25.88;;;;;;;;;;5023519;28;103386;-71
2022/03/17 03:59:20;;;;;;;51.88;23.60;;;;;;;;;;5011427;28;101849;-71
2022/03/17 04:01:48;;;;;;;51.75;23.52;;;;;;;;;;4994570;28;99907;-71
2022/03/17 04:04:19;;;;;;;44.22;22.92;;;;;;;;;;5010807;28;100167;-71
2022/03/17 04:06:48;;;;;;;66.03;29.27;;;;;;;;;;4994588;28;100264;-71
2022/03/17 04:09:15;;;;;;;60.72;26.60;;;;;;;;;;5012239;28;102511;-71
2022/03/17 04:11:42;;;;;;;46.58;23.02;;;;;;;;;;5010975;28;100098;-71
2022/03/17 04:14:10;;;;;;;50.83;24.60;;;;;;;;;;4993948;28;100105;-71
2022/03/17 04:16:36;;;;;;;52.65;25.00;;;;;;;;;;4993868;28;100159;-71
2022/03/17 04:19:04;;;;;;;56.47;26.65;;;;;;;;;;5011256;28;101759;-71
2022/03/17 04:21:31;;;;;;;65.50;28.77;;;;;;;;;;5011854;28;100185;-71
2022/03/17 04:23:58;;;;;;;81.95;34.15;;;;;;;;;;5011908;28;100053;-71
2022/03/17 04:26:25;;;;;;;59.85;25.85;;;;;;;;;;4977523;28;100215;-71
2022/03/17 04:28:52;;;;;;;60.92;29.35;;;;;;;;;;5010419;28;100620;-71
2022/03/17 04:31:20;;;;;;;70.38;31.45;;;;;;;;;;5012222;28;100011;-70
2022/03/17 04:33:48;;;;;;;54.05;25.55;;;;;;;;;;5010990;28;99931;-71
2022/03/17 04:36:15;;;;;;;48.05;24.25;;;;;;;;;;4993901;28;100213;-71
2022/03/17 04:38:42;;;;;;;49.50;24.20;;;;;;;;;;4993923;28;105112;-71
2022/03/17 04:41:10;;;;;;;59.88;25.13;;;;;;;;;;4993778;28;100245;-71
2022/03/17 04:43:37;;;;;;;55.08;24.02;;;;;;;;;;4960870;28;100000;-72
2022/03/17 04:46:04;;;;;;;53.63;25.33;;;;;;;;;;5010227;28;103286;-71
2022/03/17 04:48:31;;;;;;;49.70;24.63;;;;;;;;;;4993782;28;100615;-71
2022/03/17 04:50:58;;;;;;;49.03;24.50;;;;;;;;;;5011830;28;99728;-70
2022/03/17 04:53:27;;;;;;;61.50;26.77;;;;;;;;;;4993621;28;100847;-71
2022/03/17 04:55:57;;;;;;;41.65;21.20;;;;;;;;;;4978092;28;100242;-70
2022/03/17 04:58:24;;;;;;;52.42;25.98;;;;;;;;;;5009367;28;101049;-70
2022/03/17 05:00:53;;;;;;;41.58;21.75;;;;;;;;;;5009517;28;100199;-70
2022/03/17 05:03:20;;;;;;;43.90;21.42;;;;;;;;;;5010366;28;100073;-71
2022/03/17 05:05:49;;;;;;;41.10;21.08;;;;;;;;;;4992985;28;100347;-71
2022/03/17 05:08:16;;;;;;;59.00;27.65;;;;;;;;;;5011079;28;100512;-71
2022/03/17 05:10:44;;;;;;;56.47;27.25;;;;;;;;;;5009629;28;100087;-71
2022/03/17 05:13:11;;;;;;;42.75;19.95;;;;;;;;;;5010144;28;100247;-71
2022/03/17 05:15:39;;;;;;;49.67;21.60;;;;;;;;;;4990198;28;100098;-71
2022/03/17 05:18:06;;;;;;;35.95;18.30;;;;;;;;;;4999669;28;100820;-71
2022/03/17 05:20:35;;;;;;;43.83;20.33;;;;;;;;;;5016825;28;100213;-71
2022/03/17 05:23:12;;;;;;;51.88;25.92;;;;;;;;;;5030307;28;100006;-71
2022/03/17 05:25:39;;;;;;;52.08;26.08;;;;;;;;;;5013123;28;100190;-71
2022/03/17 05:28:08;;;;;;;50.22;24.75;;;;;;;;;;4996360;28;100847;-71
2022/03/17 05:30:35;;;;;;;52.78;25.60;;;;;;;;;;4996301;28;100114;-71
2022/03/17 05:33:02;;;;;;;47.55;22.50;;;;;;;;;;5013445;28;100056;-71
2022/03/17 05:35:29;;;;;;;55.38;26.55;;;;;;;;;;4979897;28;100133;-72
2022/03/17 05:37:56;;;;;;;50.78;24.05;;;;;;;;;;4979580;28;100563;-71
2022/03/17 05:40:24;;;;;;;48.08;24.73;;;;;;;;;;5014441;28;100121;-71
2022/03/17 05:42:56;;;;;;;50.70;24.63;;;;;;;;;;5013212;28;100052;-70
2022/03/17 05:45:25;;;;;;;59.53;27.88;;;;;;;;;;5013771;28;100216;-72
2022/03/17 05:47:53;;;;;;;52.90;26.52;;;;;;;;;;5012972;28;102264;-70
2022/03/17 05:50:22;;;;;;;49.30;27.25;;;;;;;;;;5012840;28;100100;-71
2022/03/17 05:52:49;;;;;;;64.50;28.60;;;;;;;;;;5012828;28;100119;-71
2022/03/17 05:55:17;;;;;;;72.95;32.63;;;;;;;;;;5012951;28;100687;-71
2022/03/17 05:57:48;;;;;;;78.90;33.03;;;;;;;;;;5013610;28;100637;-71
2022/03/17 06:00:16;;;;;;;79.15;33.55;;;;;;;;;;5013278;28;100237;-72
2022/03/17 06:02:43;;;;;;;64.47;31.75;;;;;;;;;;4996217;28;100102;-72
2022/03/17 06:05:11;;;;;;;76.38;33.30;;;;;;;;;;4995883;28;100151;-71
2022/03/17 06:07:49;;;;;;;70.40;31.30;;;;;;;;;;5013231;28;100717;-73
2022/03/17 06:10:23;;;;;;;88.90;35.75;;;;;;;;;;5011616;28;102170;-71
2022/03/17 06:12:51;;;;;;;91.30;36.33;;;;;;;;;;5012880;28;100071;-71
2022/03/17 06:15:19;;;;;;;84.97;36.88;;;;;;;;;;4995606;28;100358;-72
2022/03/17 06:17:49;;;;;;;72.60;33.90;;;;;;;;;;5010957;28;100689;-71
2022/03/17 06:20:17;;;;;;;82.65;33.92;;;;;;;;;;5012536;28;100109;-71
2022/03/17 06:22:59;;;;;;;71.53;32.85;;;;;;;;;;5012275;28;100110;-71
2022/03/17 06:25:43;;;;;;;91.93;38.70;;;;;;;;;;5010346;28;100943;-71
2022/03/17 06:28:32;;;;;;;75.70;35.53;;;;;;;;;;5015068;28;103581;-71
2022/03/17 06:31:01;;;;;;;82.40;38.20;;;;;;;;;;5014688;28;100083;-72
2022/03/17 06:33:30;;;;;;;82.43;37.78;;;;;;;;;;5014694;28;100165;-72
2022/03/17 06:35:57;;;;;;;84.95;38.97;;;;;;;;;;5014454;28;100194;-72
2022/03/17 06:38:24;;;;;;;87.78;41.35;;;;;;;;;;5014575;28;100644;-72
2022/03/17 06:40:51;;;;;;;80.00;38.80;;;;;;;;;;5031039;28;100347;-72
2022/03/17 06:43:17;;;;;;;82.90;39.00;;;;;;;;;;5014519;28;100149;-72
2022/03/17 06:45:44;;;;;;;74.93;36.92;;;;;;;;;;5013442;28;101325;-72
2022/03/17 06:48:11;;;;;;;75.72;38.33;;;;;;;;;;5013213;28;100735;-72
2022/03/17 06:50:38;;;;;;;84.25;39.55;;;;;;;;;;5030966;28;100127;-72
2022/03/17 06:53:05;;;;;;;76.18;38.25;;;;;;;;;;5014407;28;100220;-72
2022/03/17 06:55:33;;;;;;;75.97;39.42;;;;;;;;;;5013707;28;100207;-72
2022/03/17 06:58:01;;;;;;;77.45;38.88;;;;;;;;;;5030459;28;100563;-72
2022/03/17 07:00:28;;;;;;;68.30;35.20;;;;;;;;;;4997007;27;100223;-72
2022/03/17 07:02:55;;;;;;;80.25;40.45;;;;;;;;;;5011914;28;100077;-71
2022/03/17 07:05:22;;;;;;;85.97;41.85;;;;;;;;;;5022026;28;100188;-71
2022/03/17 07:07:49;;;;;;;76.65;41.75;;;;;;;;;;5014643;28;100558;-71
2022/03/17 07:10:15;;;;;;;81.40;43.20;;;;;;;;;;5014718;28;100012;-71
2022/03/17 07:12:43;;;;;;;87.65;42.45;;;;;;;;;;5033058;28;99993;-71
2022/03/17 07:15:10;;;;;;;77.75;41.45;;;;;;;;;;5014804;28;100307;-71
2022/03/17 07:17:41;;;;;;;88.20;43.10;;;;;;;;;;5013882;28;100508;-71
2022/03/17 07:20:11;;;;;;;84.30;42.47;;;;;;;;;;5014607;28;100202;-71
2022/03/17 07:22:39;;;;;;;77.50;39.33;;;;;;;;;;4997428;28;100574;-71
2022/03/17 07:25:07;;;;;;;79.80;39.80;;;;;;;;;;5013228;28;100901;-72
2022/03/17 07:27:41;;;;;;;77.75;39.50;;;;;;;;;;5017079;28;100570;-72
2022/03/17 07:30:09;;;;;;;77.07;37.88;;;;;;;;;;4993960;28;100468;-71
2022/03/17 07:32:36;;;;;;;81.65;39.58;;;;;;;;;;5011245;28;100212;-70
2022/03/17 07:35:03;;;;;;;80.07;42.00;;;;;;;;;;4993033;28;101640;-71
2022/03/17 07:37:30;;;;;;;68.45;35.63;;;;;;;;;;5011105;28;100569;-71
2022/03/17 07:39:57;;;;;;;76.22;37.95;;;;;;;;;;5018297;28;100047;-71
2022/03/17 07:42:24;;;;;;;78.63;38.58;;;;;;;;;;5029760;28;100080;-71
2022/03/17 07:45:10;;;;;;;69.45;34.45;;;;;;;;;;5030820;28;100842;-71
2022/03/17 07:47:56;;;;;;;83.95;43.60;;;;;;;;;;5026318;28;102853;-71
2022/03/17 07:50:22;;;;;;;81.72;38.78;;;;;;;;;;5011220;28;100117;-72
2022/03/17 07:52:49;;;;;;;82.68;40.70;;;;;;;;;;5010354;28;100132;-71
2022/03/17 07:55:17;;;;;;;79.40;40.63;;;;;;;;;;4991790;28;100165;-71
2022/03/17 07:57:44;;;;;;;85.90;44.22;;;;;;;;;;5009668;28;100570;-71
2022/03/17 08:00:11;;;;;;;87.68;43.30;;;;;;;;;;4992855;27;103195;-71
2022/03/17 08:02:41;;;;;;;90.20;43.88;;;;;;;;;;5031017;27;100146;-72
2022/03/17 08:05:10;;;;;;;84.40;43.75;;;;;;;;;;4996510;27;100165;-71
2022/03/17 08:07:37;;;;;;;77.47;39.20;;;;;;;;;;5002821;27;100612;-71
2022/03/17 08:10:04;;;;;;;75.32;39.53;;;;;;;;;;5016385;27;100386;-71
2022/03/17 08:12:31;;;;;;;83.20;42.78;;;;;;;;;;5010625;27;100127;-71
2022/03/17 08:14:58;;;;;;;86.97;45.33;;;;;;;;;;5013102;27;100153;-71
2022/03/17 08:17:25;;;;;;;86.18;43.50;;;;;;;;;;5013141;27;100530;-71
2022/03/17 08:19:53;;;;;;;79.15;40.35;;;;;;;;;;5030791;27;100313;-72
2022/03/17 08:22:20;;;;;;;82.47;40.72;;;;;;;;;;5030432;27;100188;-71
2022/03/17 08:24:49;;;;;;;71.15;37.53;;;;;;;;;;5011735;27;101865;-71
2022/03/17 08:27:16;;;;;;;89.65;45.75;;;;;;;;;;5012765;27;101144;-70
2022/03/17 08:29:43;;;;;;;85.65;41.20;;;;;;;;;;5030855;27;100255;-71
2022/03/17 08:32:10;;;;;;;71.05;38.63;;;;;;;;;;5011960;27;100116;-71
2022/03/17 08:34:37;;;;;;;62.33;34.80;;;;;;;;;;5030384;27;100722;-71
2022/03/17 08:37:05;;;;;;;70.05;37.58;;;;;;;;;;4996242;27;100809;-72
2022/03/17 08:39:32;;;;;;;60.95;32.70;;;;;;;;;;5029340;27;100308;-72
2022/03/17 08:41:59;;;;;;;67.00;32.35;;;;;;;;;;5012930;27;100234;-72
2022/03/17 08:44:26;;;;;;;57.05;31.85;;;;;;;;;;5022427;27;100260;-73
2022/03/17 08:49:43;;;;;;;63.03;34.30;;;;;;;;;;5051282;27;100638;-72
2022/03/17 08:52:10;;;;;;;64.63;33.72;;;;;;;;;;5054205;27;100196;-71
2022/03/17 08:54:41;;;;;;;66.03;37.25;;;;;;;;;;5037096;27;100745;-72
2022/03/17 08:57:08;;;;;;;57.28;32.95;;;;;;;;;;5036490;27;101905;-72
2022/03/17 08:59:36;;;;;;;61.60;34.58;;;;;;;;;;5055097;27;100076;-72
2022/03/17 09:02:05;;;;;;;61.30;33.45;;;;;;;;;;5016864;28;100218;-72
2022/03/17 09:04:33;;;;;;;60.47;34.53;;;;;;;;;;5000797;28;100200;-72
2022/03/17 09:07:00;;;;;;;62.65;33.88;;;;;;;;;;5014161;28;102701;-72
2022/03/17 09:09:32;;;;;;;64.75;34.45;;;;;;;;;;5014966;28;100115;-71
2022/03/17 09:12:00;;;;;;;61.75;31.75;;;;;;;;;;5011027;28;100154;-72
2022/03/17 09:14:28;;;;;;;57.70;32.40;;;;;;;;;;4980103;28;100075;-72
2022/03/17 09:16:55;;;;;;;65.82;34.60;;;;;;;;;;5013859;28;101158;-72
2022/03/17 09:19:22;;;;;;;59.08;33.58;;;;;;;;;;5014569;28;102246;-72
2022/03/17 09:21:50;;;;;;;70.97;37.88;;;;;;;;;;4980359;28;100208;-71
2022/03/17 09:24:16;;;;;;;68.50;36.40;;;;;;;;;;5014142;28;100303;-72
2022/03/17 09:26:43;;;;;;;70.78;37.55;;;;;;;;;;5012317;28;100563;-72
2022/03/17 09:29:10;;;;;;;66.72;35.88;;;;;;;;;;4996468;28;100246;-73
2022/03/17 09:31:37;;;;;;;62.17;34.78;;;;;;;;;;5014715;28;100206;-72
2022/03/17 09:34:04;;;;;;;62.60;35.20;;;;;;;;;;4996265;28;101316;-72
2022/03/17 09:36:31;;;;;;;65.22;34.97;;;;;;;;;;5013155;28;100706;-72
2022/03/17 09:41:44;;;;;;;69.90;33.15;;;;;;;;;;4998780;28;100287;-72
2022/03/17 09:44:12;;;;;;;65.95;33.20;;;;;;;;;;5013763;28;102657;-73
2022/03/17 09:46:41;;;;;;;68.32;33.97;;;;;;;;;;4996398;28;100618;-72
2022/03/17 09:49:08;;;;;;;61.55;31.17;;;;;;;;;;5014223;28;100143;-72
2022/03/17 09:51:35;;;;;;;60.85;32.58;;;;;;;;;;4996121;28;100086;-72
2022/03/17 09:54:04;;;;;;;59.17;33.78;;;;;;;;;;5012304;28;100783;-72
2022/03/17 09:56:31;;;;;;;59.17;31.48;;;;;;;;;;5012554;28;100835;-73
2022/03/17 09:58:58;;;;;;;59.22;31.95;;;;;;;;;;5013073;28;100001;-72
2022/03/17 10:01:28;;;;;;;51.90;29.23;;;;;;;;;;4979701;28;100186;-72
2022/03/17 10:04:02;;;;;;;60.50;34.03;;;;;;;;;;5011618;28;100562;-72
2022/03/17 10:06:29;;;;;;;61.30;33.30;;;;;;;;;;4979428;28;100555;-72
2022/03/17 10:08:56;;;;;;;59.22;32.05;;;;;;;;;;4996273;28;100111;-72
2022/03/17 10:11:31;;;;;;;60.65;32.05;;;;;;;;;;5014213;28;100002;-72
2022/03/17 10:13:59;;;;;;;54.17;29.17;;;;;;;;;;4996235;28;100272;-72
2022/03/17 10:16:27;;;;;;;58.15;32.58;;;;;;;;;;5012034;28;101739;-72
2022/03/17 10:19:01;;;;;;;58.17;31.75;;;;;;;;;;4980055;28;100117;-72
2022/03/17 10:21:28;;;;;;;;;;;;;;;;;;5013563;28;100117;-72
2022/03/17 10:23:59;;;;;;;52.75;28.17;;;;;;;;;;5027070;28;101857;-72
2022/03/17 10:26:29;;;;;;;61.65;31.98;;;;;;;;;;5032124;28;100722;-72
2022/03/17 10:29:17;;;;;;;59.60;29.88;;;;;;;;;;5009426;28;100086;-72
2022/03/17 10:31:51;;;;;;;53.70;29.45;;;;;;;;;;5012063;28;100922;-72
2022/03/17 10:34:19;;;;;;;57.42;30.55;;;;;;;;;;5011837;28;100759;-72
2022/03/17 10:36:47;;;;;;;56.17;30.25;;;;;;;;;;5010653;28;100544;-72
2022/03/17 10:39:14;;;;;;;55.00;30.88;;;;;;;;;;5012050;28;100088;-72
2022/03/17 10:41:42;;;;;;;56.22;31.15;;;;;;;;;;5012242;28;100865;-72
2022/03/17 10:44:11;;;;;;;53.92;29.65;;;;;;;;;;5011663;28;100251;-72
2022/03/17 10:46:38;;;;;;;49.13;27.80;;;;;;;;;;4995999;28;100919;-72
2022/03/17 10:49:06;;;;;;;48.42;28.02;;;;;;;;;;5011491;28;100140;-72
2022/03/17 10:51:33;;;;;;;47.25;25.23;;;;;;;;;;4995470;28;100203;-72
2022/03/17 10:54:10;;;;;;;49.33;26.88;;;;;;;;;;5012467;28;102125;-72
2022/03/17 10:56:38;;;;;;;46.42;27.17;;;;;;;;;;5010822;28;100835;-70
2022/03/17 10:59:07;;;;;;;50.58;26.58;;;;;;;;;;4995001;28;100129;-70
2022/03/17 11:01:50;;;;;;;50.25;26.55;;;;;;;;;;4996511;28;100331;-70
2022/03/17 11:04:17;;;;;;;48.03;25.63;;;;;;;;;;5023423;28;100820;-71
2022/03/17 11:06:44;;;;;;;44.05;24.95;;;;;;;;;;5014290;28;100831;-72
2022/03/17 11:09:16;;;;;;;49.47;25.38;;;;;;;;;;5032948;27;99978;-72
2022/03/17 11:11:44;;;;;;;43.70;25.23;;;;;;;;;;5031665;28;100221;-71
2022/03/17 11:14:15;;;;;;;45.88;25.25;;;;;;;;;;5001909;28;100705;-73
2022/03/17 11:16:44;;;;;;;46.22;23.80;;;;;;;;;;4994316;28;101818;-70
2022/03/17 11:19:14;;;;;;;43.63;23.80;;;;;;;;;;4992941;28;100245;-71
2022/03/17 11:21:46;;;;;;;44.08;22.63;;;;;;;;;;5011322;28;100630;-71
2022/03/17 11:24:20;;;;;;;39.40;23.45;;;;;;;;;;5011004;28;100192;-71
2022/03/17 11:26:47;;;;;;;39.47;19.80;;;;;;;;;;5011121;28;101212;-71
2022/03/17 11:29:18;;;;;;;36.75;21.15;;;;;;;;;;5011466;28;100138;-71
2022/03/17 11:31:54;;;;;;;39.35;21.58;;;;;;;;;;5012569;28;100164;-71
2022/03/17 11:34:46;;;;;;;36.22;20.40;;;;;;;;;;5011103;28;100433;-72
2022/03/17 11:37:19;;;;;;;35.95;20.73;;;;;;;;;;5012269;28;101093;-72
2022/03/17 11:40:06;;;;;;;39.38;20.77;;;;;;;;;;5010802;28;100100;-72
2022/03/17 11:42:41;;;;;;;41.58;22.55;;;;;;;;;;5010787;28;100154;-74
2022/03/17 11:45:15;;;;;;;35.55;19.98;;;;;;;;;;4977273;28;100815;-72
2022/03/17 11:47:47;;;;;;;36.10;21.25;;;;;;;;;;5010275;28;102057;-72
2022/03/17 11:50:38;;;;;;;34.78;19.45;;;;;;;;;;4969149;28;100146;-72
2022/03/17 11:53:04;;;;;;;32.97;17.90;;;;;;;;;;5011086;28;100095;-72
2022/03/17 11:55:34;;;;;;;35.75;18.65;;;;;;;;;;5009926;28;102235;-72
2022/03/17 11:58:21;;;;;;;32.33;17.95;;;;;;;;;;5031467;28;100768;-72
2022/03/17 12:00:51;;;;;;;35.35;18.45;;;;;;;;;;5030439;28;100173;-72
2022/03/17 12:03:28;;;;;;;33.88;18.83;;;;;;;;;;5014473;28;100265;-72
2022/03/17 12:06:04;;;;;;;33.45;18.08;;;;;;;;;;5013774;28;100328;-72
2022/03/17 12:08:38;;;;;;;29.63;16.60;;;;;;;;;;5031255;28;100686;-72
2022/03/17 12:11:10;;;;;;;33.70;17.27;;;;;;;;;;5029971;28;100155;-72
2022/03/17 12:13:37;;;;;;;30.95;17.02;;;;;;;;;;5023777;27;100065;-72
2022/03/17 12:16:04;;;;;;;34.22;16.88;;;;;;;;;;5013943;28;100215;-72
2022/03/17 12:19:02;;;;;;;27.33;16.05;;;;;;;;;;5030478;28;100565;-72
2022/03/17 12:21:57;;;;;;;31.90;15.93;;;;;;;;;;5031580;28;99999;-72
2022/03/17 12:24:42;;;;;;;30.10;16.35;;;;;;;;;;5031159;28;100079;-71
2022/03/17 12:27:23;;;;;;;30.08;16.67;;;;;;;;;;5029419;28;100172;-72
2022/03/17 12:30:16;;;;;;;29.17;16.95;;;;;;;;;;5015800;28;100540;-71
2022/03/17 12:32:47;;;;;;;34.70;18.17;;;;;;;;;;5030482;28;100271;-71
2022/03/17 12:35:14;;;;;;;29.88;17.60;;;;;;;;;;5025082;28;100898;-72
2022/03/17 12:37:42;;;;;;;62.55;35.38;;;;;;;;;;5009355;28;100170;-70
2022/03/17 12:40:19;;;;;;;30.88;17.63;;;;;;;;;;5009600;28;100797;-71
2022/03/17 12:42:50;;;;;;;34.65;18.85;;;;;;;;;;5003262;28;100148;-72
2022/03/17 12:45:21;;;;;;;28.58;15.68;;;;;;;;;;5030101;28;100109;-71
2022/03/17 12:47:50;;;;;;;30.60;16.08;;;;;;;;;;5029959;28;100858;-71
2022/03/17 12:50:20;;;;;;;26.10;15.63;;;;;;;;;;5013648;28;100592;-72
2022/03/17 12:52:50;;;;;;;30.42;15.20;;;;;;;;;;5014240;28;100025;-73
2022/03/17 12:55:18;;;;;;;27.63;14.80;;;;;;;;;;5002640;28;100258;-72
2022/03/17 12:57:47;;;;;;;24.95;13.77;;;;;;;;;;5009920;28;102381;-72
2022/03/17 13:00:15;;;;;;;25.48;13.38;;;;;;;;;;5010335;28;100620;-72
2022/03/17 13:02:46;;;;;;;21.75;12.35;;;;;;;;;;5010501;28;100230;-70
2022/03/17 13:08:04;;;;;;;21.50;13.02;;;;;;;;;;5009733;28;100293;-71
2022/03/17 13:14:20;;;;;;;24.27;11.93;;;;;;;;;;5010973;28;100619;-71
2022/03/17 13:16:08;;;;;;;22.52;12.82;;;;;;;;;;5016027;28;100179;-71
2022/03/17 13:18:45;;;;;;;24.73;11.93;;;;;;;;;;5029329;28;100262;-70
2022/03/17 13:21:13;;;;;;;25.00;11.57;;;;;;;;;;4996511;28;100740;-71
2022/03/17 13:23:40;;;;;;;20.63;11.88;;;;;;;;;;5012994;28;100019;-70
2022/03/17 13:26:12;;;;;;;22.38;11.80;;;;;;;;;;4997542;28;100171;-71
2022/03/17 13:28:39;;;;;;;23.92;11.65;;;;;;;;;;5017258;27;100263;-71
2022/03/17 13:31:05;;;;;;;20.92;10.02;;;;;;;;;;4976386;28;100613;-71
2022/03/17 13:33:33;;;;;;;21.50;11.25;;;;;;;;;;5014269;28;100165;-72
2022/03/17 13:36:00;;;;;;;20.77;11.00;;;;;;;;;;5013244;28;100133;-71
2022/03/17 13:38:39;;;;;;;22.58;11.93;;;;;;;;;;5031883;27;100104;-71
2022/03/17 13:41:06;;;;;;;19.75;10.88;;;;;;;;;;5033340;27;100535;-71
2022/03/17 13:43:34;;;;;;;19.90;10.32;;;;;;;;;;5016520;28;100118;-72
2022/03/17 13:46:15;;;;;;;21.60;10.45;;;;;;;;;;5033113;28;100107;-72
2022/03/17 13:48:41;;;;;;;22.73;10.65;;;;;;;;;;5000788;28;101030;-72
2022/03/17 13:51:08;;;;;;;19.10;10.43;;;;;;;;;;5033490;27;101129;-71
2022/03/17 13:53:40;;;;;;;17.50;9.82;;;;;;;;;;5033504;27;100065;-71
2022/03/17 13:56:10;;;;;;;19.83;10.48;;;;;;;;;;5031900;28;100211;-71
2022/03/17 13:58:38;;;;;;;19.38;10.07;;;;;;;;;;4999501;28;100325;-70
2022/03/17 14:01:20;;;;;;;19.77;10.35;;;;;;;;;;5031000;27;100658;-72
2022/03/17 14:03:51;;;;;;;18.40;10.70;;;;;;;;;;5033867;28;100095;-71
2022/03/17 14:06:38;;;;;;;18.27;10.60;;;;;;;;;;5031780;28;100529;-71
2022/03/17 14:09:08;;;;;;;19.40;9.43;;;;;;;;;;5033041;28;100292;-72
2022/03/17 14:11:36;;;;;;;23.40;11.13;;;;;;;;;;5033310;28;100648;-71
2022/03/17 14:14:05;;;;;;;17.42;9.15;;;;;;;;;;5015955;28;100052;-72
2022/03/17 14:16:33;;;;;;;16.38;8.65;;;;;;;;;;4999122;28;100126;-72
2022/03/17 14:19:01;;;;;;;21.85;11.10;;;;;;;;;;5015031;28;100345;-71
2022/03/17 14:21:28;;;;;;;20.70;10.63;;;;;;;;;;5011669;28;100628;-71
2022/03/17 14:24:11;;;;;;;18.42;9.25;;;;;;;;;;4995712;28;100277;-71
2022/03/17 14:26:47;;;;;;;20.85;10.40;;;;;;;;;;5012669;28;100310;-71
2022/03/17 14:29:16;;;;;;;21.23;10.30;;;;;;;;;;5012142;28;100315;-71
2022/03/17 14:31:44;;;;;;;22.88;11.18;;;;;;;;;;5012625;28;101763;-71
2022/03/17 14:34:11;;;;;;;20.63;10.52;;;;;;;;;;5012343;28;100068;-71
2022/03/17 14:36:43;;;;;;;19.10;10.18;;;;;;;;;;5013602;28;100056;-71
2022/03/17 14:39:10;;;;;;;30.15;11.65;;;;;;;;;;5011493;28;100309;-72